sensor_id;sensor_type;location;lat;lon;timestamp;temperature;humidity
28071;DHT22;15383;48.408;9.968;2024-01-15T00:01:26;5.90;99.90
28071;DHT22;15383;48.408;9.968;2024-01-15T00:03:52;5.90;99.90
28071;DHT22;15383;48.408;9.968;2024-01-15T00:06:17;5.90;99.90
28071;DHT22;15383;48.408;9.968;2024-01-15T00:08:43;5.90;99.90
28071;DHT22;15383;48.408;9.968;2024-01-15T00:11:08;5.90;99.90
28071;DHT22;15383;48.408;9.968;2024-01-15T00:13:34;5.90;99.90
28071;DHT22;15383;48.408;9.968;2024-01-15T00:15:59;5.90;99.90
28071;DHT22;15383;48.408;9.968;2024-01-15T00:18:25;5.90;99.90
28071;DHT22;15383;48.408;9.968;2024-01-15T00:20:50;5.90;99.90
28071;DHT22;15383;48.408;9.968;2024-01-15T00:23:16;5.90;99.90
28071;DHT22;15383;48.408;9.968;2024-01-15T00:25:42;5.90;99.90
28071;DHT22;15383;48.408;9.968;2024-01-15T00:28:07;5.90;99.90
28071;DHT22;15383;48.408;9.968;2024-01-15T00:30:33;5.90;99.90
28071;DHT22;15383;48.408;9.968;2024-01-15T00:32:58;5.90;99.90
28071;DHT22;15383;48.408;9.968;2024-01-15T00:35:24;5.90;99.90
28071;DHT22;15383;48.408;9.968;2024-01-15T00:37:49;5.90;99.90
28071;DHT22;15383;48.408;9.968;2024-01-15T00:40:15;5.90;99.90
28071;DHT22;15383;48.408;9.968;2024-01-15T00:42:40;5.90;99.90
28071;DHT22;15383;48.408;9.968;2024-01-15T00:45:06;5.90;99.90
28071;DHT22;15383;48.408;9.968;2024-01-15T00:47:33;5.90;99.90
28071;DHT22;15383;48.408;9.968;2024-01-15T00:50:00;5.90;99.90
28071;DHT22;15383;48.408;9.968;2024-01-15T00:52:25;5.90;99.90
28071;DHT22;15383;48.408;9.968;2024-01-15T00:54:51;5.90;99.90
28071;DHT22;15383;48.408;9.968;2024-01-15T00:57:16;6.00;99.90
28071;DHT22;15383;48.408;9.968;2024-01-15T00:59:44;6.00;99.90
28071;DHT22;15383;48.408;9.968;2024-01-15T01:02:10;6.00;99.90
28071;DHT22;15383;48.408;9.968;2024-01-15T01:04:36;6.00;99.90
28071;DHT22;15383;48.408;9.968;2024-01-15T01:07:01;6.00;99.90
28071;DHT22;15383;48.408;9.968;2024-01-15T01:09:27;6.00;99.90
28071;DHT22;15383;48.408;9.968;2024-01-15T01:11:55;6.00;99.90
28071;DHT22;15383;48.408;9.968;2024-01-15T01:14:21;6.00;99.90
28071;DHT22;15383;48.408;9.968;2024-01-15T01:16:47;6.00;99.90
28071;DHT22;15383;48.408;9.968;2024-01-15T01:19:12;6.00;99.90
28071;DHT22;15383;48.408;9.968;2024-01-15T01:21:38;6.00;99.90
28071;DHT22;15383;48.408;9.968;2024-01-15T01:24:03;6.00;99.90
28071;DHT22;15383;48.408;9.968;2024-01-15T01:26:30;5.90;99.90
28071;DHT22;15383;48.408;9.968;2024-01-15T01:28:55;5.90;99.90
28071;DHT22;15383;48.408;9.968;2024-01-15T01:31:21;5.90;99.90
28071;DHT22;15383;48.408;9.968;2024-01-15T01:33:47;5.90;99.90
28071;DHT22;15383;48.408;9.968;2024-01-15T01:36:12;5.90;99.90
28071;DHT22;15383;48.408;9.968;2024-01-15T01:38:38;5.90;99.90
28071;DHT22;15383;48.408;9.968;2024-01-15T01:41:03;5.90;99.90
28071;DHT22;15383;48.408;9.968;2024-01-15T01:43:29;5.90;99.90
28071;DHT22;15383;48.408;9.968;2024-01-15T01:45:57;5.90;99.90
28071;DHT22;15383;48.408;9.968;2024-01-15T01:48:24;5.90;99.90
28071;DHT22;15383;48.408;9.968;2024-01-15T01:50:54;5.90;99.90
28071;DHT22;15383;48.408;9.968;2024-01-15T01:53:22;5.90;99.90
28071;DHT22;15383;48.408;9.968;2024-01-15T01:55:48;5.90;99.90
28071;DHT22;15383;48.408;9.968;2024-01-15T01:58:15;5.90;99.90
28071;DHT22;15383;48.408;9.968;2024-01-15T02:00:41;5.90;99.90
28071;DHT22;15383;48.408;9.968;2024-01-15T02:03:07;5.90;99.90
28071;DHT22;15383;48.408;9.968;2024-01-15T02:05:34;5.90;99.90
28071;DHT22;15383;48.408;9.968;2024-01-15T02:08:00;5.80;99.90
28071;DHT22;15383;48.408;9.968;2024-01-15T02:10:26;5.80;99.90
28071;DHT22;15383;48.408;9.968;2024-01-15T02:12:51;5.80;99.90
28071;DHT22;15383;48.408;9.968;2024-01-15T02:15:17;5.80;99.90
28071;DHT22;15383;48.408;9.968;2024-01-15T02:18:03;5.80;99.90
28071;DHT22;15383;48.408;9.968;2024-01-15T02:20:29;5.80;99.90
28071;DHT22;15383;48.408;9.968;2024-01-15T02:23:11;5.80;99.90
28071;DHT22;15383;48.408;9.968;2024-01-15T02:25:38;5.80;99.90
28071;DHT22;15383;48.408;9.968;2024-01-15T02:28:05;5.80;99.90
28071;DHT22;15383;48.408;9.968;2024-01-15T02:30:31;5.80;99.90
28071;DHT22;15383;48.408;9.968;2024-01-15T02:32:57;5.80;99.90
28071;DHT22;15383;48.408;9.968;2024-01-15T02:35:23;5.80;99.90
28071;DHT22;15383;48.408;9.968;2024-01-15T02:37:49;5.80;99.90
28071;DHT22;15383;48.408;9.968;2024-01-15T02:40:14;5.80;99.90
28071;DHT22;15383;48.408;9.968;2024-01-15T02:42:40;5.70;99.90
28071;DHT22;15383;48.408;9.968;2024-01-15T02:45:05;5.80;99.90
28071;DHT22;15383;48.408;9.968;2024-01-15T02:47:31;5.70;99.90
28071;DHT22;15383;48.408;9.968;2024-01-15T02:49:56;5.70;99.90
28071;DHT22;15383;48.408;9.968;2024-01-15T02:52:22;5.80;99.90
28071;DHT22;15383;48.408;9.968;2024-01-15T02:54:47;5.80;99.90
28071;DHT22;15383;48.408;9.968;2024-01-15T02:57:13;5.80;99.90
28071;DHT22;15383;48.408;9.968;2024-01-15T02:59:38;5.80;99.90
28071;DHT22;15383;48.408;9.968;2024-01-15T03:02:04;5.80;99.90
28071;DHT22;15383;48.408;9.968;2024-01-15T03:04:29;5.80;99.90
28071;DHT22;15383;48.408;9.968;2024-01-15T03:06:55;5.80;99.90
28071;DHT22;15383;48.408;9.968;2024-01-15T03:09:20;5.80;99.90
28071;DHT22;15383;48.408;9.968;2024-01-15T03:11:46;5.80;99.90
28071;DHT22;15383;48.408;9.968;2024-01-15T03:14:12;5.80;99.90
28071;DHT22;15383;48.408;9.968;2024-01-15T03:16:37;5.80;99.90
28071;DHT22;15383;48.408;9.968;2024-01-15T03:19:03;5.80;99.90
28071;DHT22;15383;48.408;9.968;2024-01-15T03:21:28;5.80;99.90
28071;DHT22;15383;48.408;9.968;2024-01-15T03:23:54;5.80;99.90
28071;DHT22;15383;48.408;9.968;2024-01-15T03:26:19;5.80;99.90
28071;DHT22;15383;48.408;9.968;2024-01-15T03:28:45;5.80;99.90
28071;DHT22;15383;48.408;9.968;2024-01-15T03:31:10;5.80;99.90
28071;DHT22;15383;48.408;9.968;2024-01-15T03:33:36;5.80;99.90
28071;DHT22;15383;48.408;9.968;2024-01-15T03:36:01;5.80;99.90
28071;DHT22;15383;48.408;9.968;2024-01-15T03:38:30;5.80;99.90
28071;DHT22;15383;48.408;9.968;2024-01-15T03:40:55;5.70;99.90
28071;DHT22;15383;48.408;9.968;2024-01-15T03:43:21;5.70;99.90
28071;DHT22;15383;48.408;9.968;2024-01-15T03:45:46;5.80;99.90
28071;DHT22;15383;48.408;9.968;2024-01-15T03:48:12;5.80;99.90
28071;DHT22;15383;48.408;9.968;2024-01-15T03:50:38;5.80;99.90
28071;DHT22;15383;48.408;9.968;2024-01-15T03:53:03;5.80;99.90
28071;DHT22;15383;48.408;9.968;2024-01-15T03:55:29;5.80;99.90
28071;DHT22;15383;48.408;9.968;2024-01-15T03:57:54;5.80;99.90
28071;DHT22;15383;48.408;9.968;2024-01-15T04:00:20;5.80;99.90
28071;DHT22;15383;48.408;9.968;2024-01-15T04:02:45;5.80;99.90
28071;DHT22;15383;48.408;9.968;2024-01-15T04:05:11;5.80;99.90
28071;DHT22;15383;48.408;9.968;2024-01-15T04:07:37;5.80;99.90
28071;DHT22;15383;48.408;9.968;2024-01-15T04:10:02;5.80;99.90
28071;DHT22;15383;48.408;9.968;2024-01-15T04:12:28;5.80;99.90
28071;DHT22;15383;48.408;9.968;2024-01-15T04:14:53;5.80;99.90
28071;DHT22;15383;48.408;9.968;2024-01-15T04:17:19;5.90;99.90
28071;DHT22;15383;48.408;9.968;2024-01-15T04:19:45;5.80;99.90
28071;DHT22;15383;48.408;9.968;2024-01-15T04:22:10;5.90;99.90
28071;DHT22;15383;48.408;9.968;2024-01-15T04:24:36;5.90;99.90
28071;DHT22;15383;48.408;9.968;2024-01-15T04:27:01;5.90;99.90
28071;DHT22;15383;48.408;9.968;2024-01-15T04:29:27;5.90;99.90
28071;DHT22;15383;48.408;9.968;2024-01-15T04:31:53;5.90;99.90
28071;DHT22;15383;48.408;9.968;2024-01-15T04:34:18;5.90;99.90
28071;DHT22;15383;48.408;9.968;2024-01-15T04:36:44;5.90;99.90
28071;DHT22;15383;48.408;9.968;2024-01-15T04:39:09;5.90;99.90
28071;DHT22;15383;48.408;9.968;2024-01-15T04:41:36;5.90;99.90
28071;DHT22;15383;48.408;9.968;2024-01-15T04:44:02;5.90;99.90
28071;DHT22;15383;48.408;9.968;2024-01-15T04:46:28;5.90;99.90
28071;DHT22;15383;48.408;9.968;2024-01-15T04:48:53;5.90;99.90
28071;DHT22;15383;48.408;9.968;2024-01-15T04:51:19;5.90;99.90
28071;DHT22;15383;48.408;9.968;2024-01-15T04:53:44;5.90;99.90
28071;DHT22;15383;48.408;9.968;2024-01-15T04:56:10;5.90;99.90
28071;DHT22;15383;48.408;9.968;2024-01-15T04:58:35;5.90;99.90
28071;DHT22;15383;48.408;9.968;2024-01-15T05:01:01;5.90;99.90
28071;DHT22;15383;48.408;9.968;2024-01-15T05:03:27;5.90;99.90
28071;DHT22;15383;48.408;9.968;2024-01-15T05:05:52;5.90;99.90
28071;DHT22;15383;48.408;9.968;2024-01-15T05:08:18;5.90;99.90
28071;DHT22;15383;48.408;9.968;2024-01-15T05:10:44;5.90;99.90
28071;DHT22;15383;48.408;9.968;2024-01-15T05:13:10;5.90;99.90
28071;DHT22;15383;48.408;9.968;2024-01-15T05:15:35;5.90;99.90
28071;DHT22;15383;48.408;9.968;2024-01-15T05:18:01;5.90;99.90
28071;DHT22;15383;48.408;9.968;2024-01-15T05:20:26;5.90;99.90
28071;DHT22;15383;48.408;9.968;2024-01-15T05:22:52;5.90;99.90
28071;DHT22;15383;48.408;9.968;2024-01-15T05:25:17;5.90;99.90
28071;DHT22;15383;48.408;9.968;2024-01-15T05:27:43;5.90;99.90
28071;DHT22;15383;48.408;9.968;2024-01-15T05:30:09;5.80;99.90
28071;DHT22;15383;48.408;9.968;2024-01-15T05:32:34;5.80;99.90
28071;DHT22;15383;48.408;9.968;2024-01-15T05:35:00;5.80;99.90
28071;DHT22;15383;48.408;9.968;2024-01-15T05:37:25;5.90;99.90
28071;DHT22;15383;48.408;9.968;2024-01-15T05:39:51;5.80;99.90
28071;DHT22;15383;48.408;9.968;2024-01-15T05:42:16;5.90;99.90
28071;DHT22;15383;48.408;9.968;2024-01-15T05:44:42;5.80;99.90
28071;DHT22;15383;48.408;9.968;2024-01-15T05:47:08;5.80;99.90
28071;DHT22;15383;48.408;9.968;2024-01-15T05:49:33;5.80;99.90
28071;DHT22;15383;48.408;9.968;2024-01-15T05:51:59;5.80;99.90
28071;DHT22;15383;48.408;9.968;2024-01-15T05:54:25;5.80;99.90
28071;DHT22;15383;48.408;9.968;2024-01-15T05:56:50;5.80;99.90
28071;DHT22;15383;48.408;9.968;2024-01-15T05:59:16;5.80;99.90
28071;DHT22;15383;48.408;9.968;2024-01-15T06:01:42;5.70;99.90
28071;DHT22;15383;48.408;9.968;2024-01-15T06:04:07;5.70;99.90
28071;DHT22;15383;48.408;9.968;2024-01-15T06:06:33;5.80;99.90
28071;DHT22;15383;48.408;9.968;2024-01-15T06:08:59;5.70;99.90
28071;DHT22;15383;48.408;9.968;2024-01-15T06:11:33;5.70;99.90
28071;DHT22;15383;48.408;9.968;2024-01-15T06:13:59;5.70;99.90
28071;DHT22;15383;48.408;9.968;2024-01-15T06:16:26;5.70;99.90
28071;DHT22;15383;48.408;9.968;2024-01-15T06:18:51;5.70;99.90
28071;DHT22;15383;48.408;9.968;2024-01-15T06:21:17;5.70;99.90
28071;DHT22;15383;48.408;9.968;2024-01-15T06:23:42;5.70;99.90
28071;DHT22;15383;48.408;9.968;2024-01-15T06:26:08;5.70;99.90
28071;DHT22;15383;48.408;9.968;2024-01-15T06:28:33;5.70;99.90
28071;DHT22;15383;48.408;9.968;2024-01-15T06:30:59;5.70;99.90
28071;DHT22;15383;48.408;9.968;2024-01-15T06:33:24;5.70;99.90
28071;DHT22;15383;48.408;9.968;2024-01-15T06:35:50;5.70;99.90
28071;DHT22;15383;48.408;9.968;2024-01-15T06:38:16;5.70;99.90
28071;DHT22;15383;48.408;9.968;2024-01-15T06:40:41;5.70;99.90
28071;DHT22;15383;48.408;9.968;2024-01-15T06:43:11;5.70;99.90
28071;DHT22;15383;48.408;9.968;2024-01-15T06:45:37;5.70;99.90
28071;DHT22;15383;48.408;9.968;2024-01-15T06:48:03;5.60;99.90
28071;DHT22;15383;48.408;9.968;2024-01-15T06:50:28;5.60;99.90
28071;DHT22;15383;48.408;9.968;2024-01-15T06:52:54;5.60;99.90
28071;DHT22;15383;48.408;9.968;2024-01-15T06:55:19;5.60;99.90
28071;DHT22;15383;48.408;9.968;2024-01-15T06:57:45;5.60;99.90
28071;DHT22;15383;48.408;9.968;2024-01-15T07:00:11;5.70;99.90
28071;DHT22;15383;48.408;9.968;2024-01-15T07:02:36;5.70;99.90
28071;DHT22;15383;48.408;9.968;2024-01-15T07:05:02;5.70;99.90
28071;DHT22;15383;48.408;9.968;2024-01-15T07:07:30;5.70;99.90
28071;DHT22;15383;48.408;9.968;2024-01-15T07:09:56;5.70;99.90
28071;DHT22;15383;48.408;9.968;2024-01-15T07:12:22;5.60;99.90
28071;DHT22;15383;48.408;9.968;2024-01-15T07:14:48;5.60;99.90
28071;DHT22;15383;48.408;9.968;2024-01-15T07:17:14;5.70;99.90
28071;DHT22;15383;48.408;9.968;2024-01-15T07:19:40;5.70;99.90
28071;DHT22;15383;48.408;9.968;2024-01-15T07:22:06;5.70;99.90
28071;DHT22;15383;48.408;9.968;2024-01-15T07:24:32;5.70;99.90
28071;DHT22;15383;48.408;9.968;2024-01-15T07:26:59;5.70;99.90
28071;DHT22;15383;48.408;9.968;2024-01-15T07:29:25;5.70;99.90
28071;DHT22;15383;48.408;9.968;2024-01-15T07:31:51;5.70;99.90
28071;DHT22;15383;48.408;9.968;2024-01-15T07:34:17;5.70;99.90
28071;DHT22;15383;48.408;9.968;2024-01-15T07:36:44;5.70;99.90
28071;DHT22;15383;48.408;9.968;2024-01-15T07:39:09;5.70;99.90
28071;DHT22;15383;48.408;9.968;2024-01-15T07:41:35;5.70;99.90
28071;DHT22;15383;48.408;9.968;2024-01-15T07:44:01;5.70;99.90
28071;DHT22;15383;48.408;9.968;2024-01-15T07:46:27;5.70;99.90
28071;DHT22;15383;48.408;9.968;2024-01-15T07:48:52;5.80;99.90
28071;DHT22;15383;48.408;9.968;2024-01-15T07:51:22;5.80;99.90
28071;DHT22;15383;48.408;9.968;2024-01-15T07:53:47;5.80;99.90
28071;DHT22;15383;48.408;9.968;2024-01-15T07:56:13;5.80;99.90
28071;DHT22;15383;48.408;9.968;2024-01-15T07:58:39;5.80;99.90
28071;DHT22;15383;48.408;9.968;2024-01-15T08:01:04;5.80;99.90
28071;DHT22;15383;48.408;9.968;2024-01-15T08:03:30;5.70;99.90
28071;DHT22;15383;48.408;9.968;2024-01-15T08:05:55;5.80;99.90
28071;DHT22;15383;48.408;9.968;2024-01-15T08:08:23;5.70;99.90
28071;DHT22;15383;48.408;9.968;2024-01-15T08:10:49;5.70;99.90
28071;DHT22;15383;48.408;9.968;2024-01-15T08:13:14;5.70;99.90
28071;DHT22;15383;48.408;9.968;2024-01-15T08:15:41;5.70;99.90
28071;DHT22;15383;48.408;9.968;2024-01-15T08:18:06;5.70;99.90
28071;DHT22;15383;48.408;9.968;2024-01-15T08:20:32;5.70;99.90
28071;DHT22;15383;48.408;9.968;2024-01-15T08:22:58;5.70;99.90
28071;DHT22;15383;48.408;9.968;2024-01-15T08:25:23;5.70;99.90
28071;DHT22;15383;48.408;9.968;2024-01-15T08:27:49;5.70;99.90
28071;DHT22;15383;48.408;9.968;2024-01-15T08:30:15;5.70;99.90
28071;DHT22;15383;48.408;9.968;2024-01-15T08:32:40;5.70;99.90
28071;DHT22;15383;48.408;9.968;2024-01-15T08:35:08;5.70;99.90
28071;DHT22;15383;48.408;9.968;2024-01-15T08:37:34;5.70;99.90
28071;DHT22;15383;48.408;9.968;2024-01-15T08:40:00;5.70;99.90
28071;DHT22;15383;48.408;9.968;2024-01-15T08:42:25;5.80;99.90
28071;DHT22;15383;48.408;9.968;2024-01-15T08:44:51;5.80;99.90
28071;DHT22;15383;48.408;9.968;2024-01-15T08:47:17;5.80;99.90
28071;DHT22;15383;48.408;9.968;2024-01-15T08:49:42;5.80;99.90
28071;DHT22;15383;48.408;9.968;2024-01-15T08:52:09;5.80;99.90
28071;DHT22;15383;48.408;9.968;2024-01-15T08:54:35;5.80;99.90
28071;DHT22;15383;48.408;9.968;2024-01-15T08:57:00;5.80;99.90
28071;DHT22;15383;48.408;9.968;2024-01-15T08:59:26;5.80;99.90
28071;DHT22;15383;48.408;9.968;2024-01-15T09:01:52;5.80;99.90
28071;DHT22;15383;48.408;9.968;2024-01-15T09:04:18;5.80;99.90
28071;DHT22;15383;48.408;9.968;2024-01-15T09:06:47;5.80;99.90
28071;DHT22;15383;48.408;9.968;2024-01-15T09:09:13;5.80;99.90
28071;DHT22;15383;48.408;9.968;2024-01-15T09:11:42;5.80;99.90
28071;DHT22;15383;48.408;9.968;2024-01-15T09:14:07;5.90;99.90
28071;DHT22;15383;48.408;9.968;2024-01-15T09:16:33;5.90;99.90
28071;DHT22;15383;48.408;9.968;2024-01-15T09:18:59;5.90;99.90
28071;DHT22;15383;48.408;9.968;2024-01-15T09:21:25;6.00;99.90
28071;DHT22;15383;48.408;9.968;2024-01-15T09:23:51;6.00;99.90
28071;DHT22;15383;48.408;9.968;2024-01-15T09:26:16;6.10;99.90
28071;DHT22;15383;48.408;9.968;2024-01-15T09:28:42;6.10;99.90
28071;DHT22;15383;48.408;9.968;2024-01-15T09:31:08;6.10;99.90
28071;DHT22;15383;48.408;9.968;2024-01-15T09:33:33;6.20;99.90
28071;DHT22;15383;48.408;9.968;2024-01-15T09:36:03;6.20;99.90
28071;DHT22;15383;48.408;9.968;2024-01-15T09:38:31;6.20;99.90
28071;DHT22;15383;48.408;9.968;2024-01-15T09:40:57;6.30;99.90
28071;DHT22;15383;48.408;9.968;2024-01-15T09:43:23;6.30;99.90
28071;DHT22;15383;48.408;9.968;2024-01-15T09:45:50;6.30;99.90
28071;DHT22;15383;48.408;9.968;2024-01-15T09:48:16;6.30;99.90
28071;DHT22;15383;48.408;9.968;2024-01-15T09:50:42;6.30;99.90
28071;DHT22;15383;48.408;9.968;2024-01-15T09:53:09;6.30;99.90
28071;DHT22;15383;48.408;9.968;2024-01-15T09:55:36;6.20;99.90
28071;DHT22;15383;48.408;9.968;2024-01-15T09:58:03;6.20;99.90
28071;DHT22;15383;48.408;9.968;2024-01-15T10:00:29;6.20;99.90
28071;DHT22;15383;48.408;9.968;2024-01-15T10:02:56;6.10;99.90
28071;DHT22;15383;48.408;9.968;2024-01-15T10:05:22;6.20;99.90
28071;DHT22;15383;48.408;9.968;2024-01-15T10:07:48;6.10;99.90
28071;DHT22;15383;48.408;9.968;2024-01-15T10:10:15;6.10;99.90
28071;DHT22;15383;48.408;9.968;2024-01-15T10:12:42;6.10;99.90
28071;DHT22;15383;48.408;9.968;2024-01-15T10:15:10;6.10;99.90
28071;DHT22;15383;48.408;9.968;2024-01-15T10:17:38;6.10;99.90
28071;DHT22;15383;48.408;9.968;2024-01-15T10:20:08;6.10;99.90
28071;DHT22;15383;48.408;9.968;2024-01-15T10:22:35;6.10;99.90
28071;DHT22;15383;48.408;9.968;2024-01-15T10:25:04;6.10;99.90
28071;DHT22;15383;48.408;9.968;2024-01-15T10:27:29;6.10;99.90
28071;DHT22;15383;48.408;9.968;2024-01-15T10:29:59;6.00;99.90
28071;DHT22;15383;48.408;9.968;2024-01-15T10:32:25;6.10;99.90
28071;DHT22;15383;48.408;9.968;2024-01-15T10:34:52;6.10;99.90
28071;DHT22;15383;48.408;9.968;2024-01-15T10:37:18;6.00;99.90
28071;DHT22;15383;48.408;9.968;2024-01-15T10:39:46;6.00;99.90
28071;DHT22;15383;48.408;9.968;2024-01-15T10:42:12;6.00;99.90
28071;DHT22;15383;48.408;9.968;2024-01-15T10:44:37;6.00;99.90
28071;DHT22;15383;48.408;9.968;2024-01-15T10:47:04;6.00;99.90
28071;DHT22;15383;48.408;9.968;2024-01-15T10:49:29;6.00;99.90
28071;DHT22;15383;48.408;9.968;2024-01-15T10:51:56;6.00;99.90
28071;DHT22;15383;48.408;9.968;2024-01-15T10:54:23;6.00;99.90
28071;DHT22;15383;48.408;9.968;2024-01-15T10:56:50;6.00;99.90
28071;DHT22;15383;48.408;9.968;2024-01-15T10:59:16;6.00;99.90
28071;DHT22;15383;48.408;9.968;2024-01-15T11:01:43;6.00;99.90
28071;DHT22;15383;48.408;9.968;2024-01-15T11:04:10;6.10;99.90
28071;DHT22;15383;48.408;9.968;2024-01-15T11:06:44;6.00;99.90
28071;DHT22;15383;48.408;9.968;2024-01-15T11:09:10;6.00;99.90
28071;DHT22;15383;48.408;9.968;2024-01-15T11:11:40;6.00;99.90
28071;DHT22;15383;48.408;9.968;2024-01-15T11:14:06;6.00;99.90
28071;DHT22;15383;48.408;9.968;2024-01-15T11:16:54;6.00;99.90
28071;DHT22;15383;48.408;9.968;2024-01-15T11:19:22;6.00;99.90
28071;DHT22;15383;48.408;9.968;2024-01-15T11:21:47;6.00;99.90
28071;DHT22;15383;48.408;9.968;2024-01-15T11:24:34;5.90;99.90
28071;DHT22;15383;48.408;9.968;2024-01-15T11:27:00;6.00;99.90
28071;DHT22;15383;48.408;9.968;2024-01-15T11:29:30;6.00;99.90
28071;DHT22;15383;48.408;9.968;2024-01-15T11:35:16;6.00;99.90
28071;DHT22;15383;48.408;9.968;2024-01-15T11:40:36;5.90;99.90
28071;DHT22;15383;48.408;9.968;2024-01-15T11:43:04;6.00;99.90
28071;DHT22;15383;48.408;9.968;2024-01-15T11:45:30;5.90;99.90
28071;DHT22;15383;48.408;9.968;2024-01-15T11:48:17;5.90;99.90
28071;DHT22;15383;48.408;9.968;2024-01-15T11:50:48;5.90;99.90
28071;DHT22;15383;48.408;9.968;2024-01-15T11:53:27;6.00;99.90
28071;DHT22;15383;48.408;9.968;2024-01-15T11:55:58;5.90;99.90
28071;DHT22;15383;48.408;9.968;2024-01-15T11:58:24;5.90;99.90
28071;DHT22;15383;48.408;9.968;2024-01-15T12:00:51;5.90;99.90
28071;DHT22;15383;48.408;9.968;2024-01-15T12:03:20;5.90;99.90
28071;DHT22;15383;48.408;9.968;2024-01-15T12:05:45;5.90;99.90
28071;DHT22;15383;48.408;9.968;2024-01-15T12:08:11;5.90;99.90
28071;DHT22;15383;48.408;9.968;2024-01-15T12:10:41;5.90;99.90
28071;DHT22;15383;48.408;9.968;2024-01-15T12:13:14;5.90;99.90
28071;DHT22;15383;48.408;9.968;2024-01-15T12:15:43;5.90;99.90
28071;DHT22;15383;48.408;9.968;2024-01-15T12:18:10;5.90;99.90
28071;DHT22;15383;48.408;9.968;2024-01-15T12:20:36;5.90;99.90
28071;DHT22;15383;48.408;9.968;2024-01-15T12:23:02;5.90;99.90
28071;DHT22;15383;48.408;9.968;2024-01-15T12:25:35;5.90;99.90
28071;DHT22;15383;48.408;9.968;2024-01-15T12:28:01;5.90;99.90
28071;DHT22;15383;48.408;9.968;2024-01-15T12:30:28;6.00;99.90
28071;DHT22;15383;48.408;9.968;2024-01-15T12:32:54;6.00;99.90
28071;DHT22;15383;48.408;9.968;2024-01-15T12:35:20;6.00;99.90
28071;DHT22;15383;48.408;9.968;2024-01-15T12:37:45;6.00;99.90
28071;DHT22;15383;48.408;9.968;2024-01-15T12:40:14;6.00;99.90
28071;DHT22;15383;48.408;9.968;2024-01-15T12:42:43;6.00;99.90
28071;DHT22;15383;48.408;9.968;2024-01-15T12:45:11;6.00;99.90
28071;DHT22;15383;48.408;9.968;2024-01-15T12:47:37;6.00;99.90
28071;DHT22;15383;48.408;9.968;2024-01-15T12:50:09;6.00;99.90
28071;DHT22;15383;48.408;9.968;2024-01-15T12:52:35;6.00;99.90
28071;DHT22;15383;48.408;9.968;2024-01-15T12:55:06;5.90;99.90
28071;DHT22;15383;48.408;9.968;2024-01-15T12:57:33;6.00;99.90
28071;DHT22;15383;48.408;9.968;2024-01-15T12:59:59;6.00;99.90
28071;DHT22;15383;48.408;9.968;2024-01-15T13:02:25;6.00;99.90
28071;DHT22;15383;48.408;9.968;2024-01-15T13:04:50;6.00;99.90
28071;DHT22;15383;48.408;9.968;2024-01-15T13:07:16;6.00;99.90
28071;DHT22;15383;48.408;9.968;2024-01-15T13:09:42;5.90;99.90
28071;DHT22;15383;48.408;9.968;2024-01-15T13:12:08;6.00;99.90
28071;DHT22;15383;48.408;9.968;2024-01-15T13:14:34;5.90;99.90
28071;DHT22;15383;48.408;9.968;2024-01-15T13:16:59;5.90;99.90
28071;DHT22;15383;48.408;9.968;2024-01-15T13:19:25;5.90;99.90
28071;DHT22;15383;48.408;9.968;2024-01-15T13:21:51;5.90;99.90
28071;DHT22;15383;48.408;9.968;2024-01-15T13:24:17;5.90;99.90
28071;DHT22;15383;48.408;9.968;2024-01-15T13:26:43;5.90;99.90
28071;DHT22;15383;48.408;9.968;2024-01-15T13:29:09;5.90;99.90
28071;DHT22;15383;48.408;9.968;2024-01-15T13:31:34;5.90;99.90
28071;DHT22;15383;48.408;9.968;2024-01-15T13:34:00;5.90;99.90
28071;DHT22;15383;48.408;9.968;2024-01-15T13:36:28;5.90;99.90
28071;DHT22;15383;48.408;9.968;2024-01-15T13:38:54;5.90;99.90
28071;DHT22;15383;48.408;9.968;2024-01-15T13:41:20;5.90;99.90
28071;DHT22;15383;48.408;9.968;2024-01-15T13:43:54;5.90;99.90
28071;DHT22;15383;48.408;9.968;2024-01-15T13:46:22;5.90;99.90
28071;DHT22;15383;48.408;9.968;2024-01-15T13:48:48;5.90;99.90
28071;DHT22;15383;48.408;9.968;2024-01-15T13:51:14;5.90;99.90
28071;DHT22;15383;48.408;9.968;2024-01-15T13:53:39;5.90;99.90
28071;DHT22;15383;48.408;9.968;2024-01-15T13:56:06;5.90;99.90
28071;DHT22;15383;48.408;9.968;2024-01-15T13:58:32;5.90;99.90
28071;DHT22;15383;48.408;9.968;2024-01-15T14:00:58;5.90;99.90
28071;DHT22;15383;48.408;9.968;2024-01-15T14:03:24;5.90;99.90
28071;DHT22;15383;48.408;9.968;2024-01-15T14:05:51;5.90;99.90
28071;DHT22;15383;48.408;9.968;2024-01-15T14:08:17;5.90;99.90
28071;DHT22;15383;48.408;9.968;2024-01-15T14:10:42;5.90;99.90
28071;DHT22;15383;48.408;9.968;2024-01-15T14:13:08;5.90;99.90
28071;DHT22;15383;48.408;9.968;2024-01-15T14:15:34;5.90;99.90
28071;DHT22;15383;48.408;9.968;2024-01-15T14:18:00;5.90;99.90
28071;DHT22;15383;48.408;9.968;2024-01-15T14:20:26;5.90;99.90
28071;DHT22;15383;48.408;9.968;2024-01-15T14:22:53;5.90;99.90
28071;DHT22;15383;48.408;9.968;2024-01-15T14:25:22;5.90;99.90
28071;DHT22;15383;48.408;9.968;2024-01-15T14:27:49;5.90;99.90
28071;DHT22;15383;48.408;9.968;2024-01-15T14:30:15;5.90;99.90
28071;DHT22;15383;48.408;9.968;2024-01-15T14:32:44;5.90;99.90
28071;DHT22;15383;48.408;9.968;2024-01-15T14:35:10;5.90;99.90
28071;DHT22;15383;48.408;9.968;2024-01-15T14:37:37;5.90;99.90
28071;DHT22;15383;48.408;9.968;2024-01-15T14:40:04;5.90;99.90
28071;DHT22;15383;48.408;9.968;2024-01-15T14:42:30;5.90;99.90
28071;DHT22;15383;48.408;9.968;2024-01-15T14:44:56;5.90;99.90
28071;DHT22;15383;48.408;9.968;2024-01-15T14:47:21;5.90;99.90
28071;DHT22;15383;48.408;9.968;2024-01-15T14:49:49;5.90;99.90
28071;DHT22;15383;48.408;9.968;2024-01-15T14:52:15;5.90;99.90
28071;DHT22;15383;48.408;9.968;2024-01-15T14:54:40;5.90;99.90
28071;DHT22;15383;48.408;9.968;2024-01-15T14:57:06;5.90;99.90
28071;DHT22;15383;48.408;9.968;2024-01-15T14:59:32;5.90;99.90
28071;DHT22;15383;48.408;9.968;2024-01-15T15:01:58;5.90;99.90
28071;DHT22;15383;48.408;9.968;2024-01-15T15:04:24;5.90;99.90
28071;DHT22;15383;48.408;9.968;2024-01-15T15:06:49;5.90;99.90
28071;DHT22;15383;48.408;9.968;2024-01-15T15:09:15;5.90;99.90
28071;DHT22;15383;48.408;9.968;2024-01-15T15:11:41;5.90;99.90
28071;DHT22;15383;48.408;9.968;2024-01-15T15:14:06;5.90;99.90
28071;DHT22;15383;48.408;9.968;2024-01-15T15:16:32;5.90;99.90
28071;DHT22;15383;48.408;9.968;2024-01-15T15:18:58;5.90;99.90
28071;DHT22;15383;48.408;9.968;2024-01-15T15:21:23;5.90;99.90
28071;DHT22;15383;48.408;9.968;2024-01-15T15:23:49;5.90;99.90
28071;DHT22;15383;48.408;9.968;2024-01-15T15:26:15;5.90;99.90
28071;DHT22;15383;48.408;9.968;2024-01-15T15:28:40;5.90;99.90
28071;DHT22;15383;48.408;9.968;2024-01-15T15:31:06;5.90;99.90
28071;DHT22;15383;48.408;9.968;2024-01-15T15:33:36;5.90;99.90
28071;DHT22;15383;48.408;9.968;2024-01-15T15:36:02;5.90;99.90
28071;DHT22;15383;48.408;9.968;2024-01-15T15:38:34;5.90;99.90
28071;DHT22;15383;48.408;9.968;2024-01-15T15:41:00;5.90;99.90
28071;DHT22;15383;48.408;9.968;2024-01-15T15:43:26;5.90;99.90
28071;DHT22;15383;48.408;9.968;2024-01-15T15:45:52;5.90;99.90